createdAt,value
2022-11-20T00:01:32.967Z,9.58
2022-11-20T00:04:00.516Z,9.60
2022-11-20T00:06:29.171Z,9.52
2022-11-20T00:08:58.563Z,9.43
2022-11-20T00:11:27.728Z,9.43
2022-11-20T00:13:58.332Z,9.42
2022-11-20T00:16:28.801Z,9.47
2022-11-20T00:18:55.966Z,9.48
2022-11-20T00:21:25.304Z,9.42
2022-11-20T00:23:55.390Z,9.41
2022-11-20T00:26:24.480Z,9.43
2022-11-20T00:29:01.168Z,9.41
2022-11-20T00:31:29.221Z,9.39
2022-11-20T00:33:57.299Z,9.39
2022-11-20T00:36:27.376Z,9.13
2022-11-20T00:38:57.760Z,9.29
2022-11-20T00:41:26.563Z,9.23
2022-11-20T00:43:57.467Z,9.29
2022-11-20T00:46:28.220Z,9.24
2022-11-20T00:48:55.802Z,9.16
2022-11-20T00:51:26.325Z,9.04
2022-11-20T00:53:55.831Z,8.93
2022-11-20T00:56:23.139Z,8.82
2022-11-20T00:58:52.634Z,8.88
2022-11-20T01:01:25.827Z,8.76
2022-11-20T01:03:55.054Z,8.86
2022-11-20T01:06:28.347Z,8.72
2022-11-20T01:09:01.113Z,8.67
2022-11-20T01:11:31.465Z,8.73
2022-11-20T01:14:02.078Z,8.67
2022-11-20T01:16:37.811Z,8.83
2022-11-20T01:19:08.484Z,8.81
2022-11-20T01:21:38.300Z,8.76
2022-11-20T01:24:11.389Z,8.86
2022-11-20T01:26:41.088Z,8.83
2022-11-20T01:29:14.009Z,8.93
2022-11-20T01:31:41.230Z,8.94
2022-11-20T01:34:12.370Z,8.82
2022-11-20T01:36:40.866Z,8.56
2022-11-20T01:39:13.448Z,8.47
2022-11-20T01:42:01.277Z,8.29
2022-11-20T01:44:59.402Z,8.53
2022-11-20T01:47:33.185Z,8.53
2022-11-20T01:50:10.681Z,8.57
2022-11-20T01:52:42.414Z,8.55
2022-11-20T01:55:23.426Z,8.66
2022-11-20T01:57:51.322Z,8.66
2022-11-20T02:00:20.931Z,8.56
2022-11-20T02:03:11.148Z,8.56
2022-11-20T02:05:45.371Z,8.40
2022-11-20T02:08:14.246Z,8.29
2022-11-20T02:10:41.332Z,8.30
2022-11-20T02:13:27.945Z,8.26
2022-11-20T02:15:55.494Z,8.19
2022-11-20T02:18:24.276Z,8.17
2022-11-20T02:21:03.224Z,8.25
2022-11-20T02:23:45.111Z,8.25
2022-11-20T02:26:15.579Z,8.35
2022-11-20T02:28:43.320Z,8.42
2022-11-20T02:31:10.696Z,8.41
2022-11-20T02:33:38.170Z,8.45
2022-11-20T02:36:06.053Z,8.34
2022-11-20T02:38:33.290Z,8.26
2022-11-20T02:41:00.717Z,8.04
2022-11-20T02:43:27.954Z,7.91
2022-11-20T02:45:55.195Z,7.92
2022-11-20T02:48:25.008Z,7.91
2022-11-20T02:50:52.440Z,7.79
2022-11-20T02:53:19.557Z,7.46
2022-11-20T02:55:46.743Z,7.48
2022-11-20T02:58:13.806Z,7.43
2022-11-20T03:00:41.247Z,7.34
2022-11-20T03:03:08.714Z,7.30
2022-11-20T03:05:35.982Z,7.10
2022-11-20T03:08:03.136Z,6.97
2022-11-20T03:10:30.330Z,6.95
2022-11-20T03:12:57.727Z,7.15
2022-11-20T03:15:25.197Z,7.37
2022-11-20T03:17:56.726Z,7.25
2022-11-20T03:20:24.507Z,7.25
2022-11-20T03:22:51.717Z,7.11
2022-11-20T03:25:18.891Z,7.08
2022-11-20T03:27:46.129Z,6.82
2022-11-20T03:30:13.767Z,6.61
2022-11-20T03:32:40.924Z,6.27
2022-11-20T03:35:08.482Z,6.10
2022-11-20T03:37:38.522Z,6.11
2022-11-20T03:40:06.838Z,6.20
2022-11-20T03:42:46.143Z,6.04
2022-11-20T03:45:18.638Z,5.84
2022-11-20T03:47:46.249Z,5.75
2022-11-20T03:50:14.859Z,5.93
2022-11-20T03:52:42.245Z,6.03
2022-11-20T03:55:09.651Z,6.27
2022-11-20T03:57:36.841Z,6.21
2022-11-20T04:00:05.871Z,6.12
2022-11-20T04:02:33.250Z,6.22
2022-11-20T04:05:00.338Z,6.28
2022-11-20T04:07:27.576Z,6.25
2022-11-20T04:09:54.768Z,6.35
2022-11-20T04:12:21.879Z,6.19
2022-11-20T04:14:49.080Z,6.23
2022-11-20T04:17:16.409Z,6.19
2022-11-20T04:19:43.693Z,6.23
2022-11-20T04:22:12.739Z,6.09
2022-11-20T04:24:39.989Z,6.28
2022-11-20T04:27:07.097Z,6.52
2022-11-20T04:29:34.215Z,6.54
2022-11-20T04:32:01.794Z,6.50
2022-11-20T04:34:29.128Z,6.40
2022-11-20T04:36:56.357Z,6.26
2022-11-20T04:39:24.522Z,6.06
2022-11-20T04:42:14.545Z,5.90
2022-11-20T04:44:41.820Z,6.04
2022-11-20T04:47:09.674Z,5.90
2022-11-20T04:49:37.643Z,5.74
2022-11-20T04:52:04.878Z,5.61
2022-11-20T04:54:32.359Z,5.57
2022-11-20T04:56:59.559Z,5.45
2022-11-20T04:59:27.011Z,5.38
2022-11-20T05:01:54.354Z,5.29
2022-11-20T05:04:21.589Z,5.49
2022-11-20T05:06:49.277Z,5.55
2022-11-20T05:09:16.599Z,5.62
2022-11-20T05:11:46.209Z,5.62
2022-11-20T05:14:15.282Z,5.86
2022-11-20T05:16:43.000Z,6.05
2022-11-20T05:19:10.376Z,5.92
2022-11-20T05:21:37.404Z,5.90
2022-11-20T05:24:07.002Z,5.88
2022-11-20T05:26:34.263Z,5.84
2022-11-20T05:29:01.611Z,5.76
2022-11-20T05:31:28.834Z,5.91
2022-11-20T05:33:58.015Z,6.05
2022-11-20T05:36:25.566Z,6.07
2022-11-20T05:38:56.725Z,6.44
2022-11-20T05:41:26.125Z,6.62
2022-11-20T05:43:53.355Z,6.63
2022-11-20T05:46:28.762Z,6.58
2022-11-20T05:48:57.822Z,6.64
2022-11-20T05:51:26.491Z,6.47
2022-11-20T05:53:53.676Z,6.68
2022-11-20T05:56:23.621Z,6.80
2022-11-20T05:58:51.422Z,6.89
2022-11-20T06:01:21.734Z,6.81
2022-11-20T06:03:50.553Z,6.73
2022-11-20T06:06:18.654Z,6.74
2022-11-20T06:08:46.335Z,6.71
2022-11-20T06:11:15.474Z,6.80
2022-11-20T06:13:43.559Z,6.80
2022-11-20T06:16:12.281Z,6.74
2022-11-20T06:18:40.415Z,6.71
2022-11-20T06:21:13.886Z,6.66
2022-11-20T06:23:41.697Z,6.58
2022-11-20T06:26:30.053Z,6.61
2022-11-20T06:28:57.472Z,6.59
2022-11-20T06:31:26.168Z,6.58
2022-11-20T06:33:53.836Z,6.58
2022-11-20T06:36:23.094Z,6.72
2022-11-20T06:38:51.171Z,6.75
2022-11-20T06:41:21.228Z,6.79
2022-11-20T06:43:49.226Z,6.67
2022-11-20T06:46:21.403Z,6.74
2022-11-20T06:48:49.891Z,6.76
2022-11-20T06:51:17.256Z,6.70
2022-11-20T06:53:44.475Z,6.72
2022-11-20T06:56:11.940Z,6.77
2022-11-20T06:58:39.383Z,6.83
2022-11-20T07:01:10.289Z,6.72
2022-11-20T07:03:37.857Z,6.54
2022-11-20T07:06:06.298Z,6.51
2022-11-20T07:08:34.417Z,6.63
2022-11-20T07:11:03.557Z,6.57
2022-11-20T07:13:32.760Z,6.66
2022-11-20T07:16:05.649Z,6.74
2022-11-20T07:18:33.022Z,6.80
2022-11-20T07:21:09.247Z,6.95
2022-11-20T07:23:37.700Z,6.96
2022-11-20T07:26:10.369Z,6.99
2022-11-20T07:28:38.271Z,6.95
2022-11-20T07:31:07.851Z,6.85
2022-11-20T07:33:35.366Z,6.82
2022-11-20T07:36:02.998Z,6.75
2022-11-20T07:38:31.247Z,6.69
2022-11-20T07:40:59.142Z,6.65
2022-11-20T07:43:26.709Z,6.52
2022-11-20T07:45:57.637Z,6.48
2022-11-20T07:48:25.824Z,6.45
2022-11-20T07:50:59.245Z,6.31
2022-11-20T07:53:26.965Z,6.34
2022-11-20T07:55:54.222Z,6.34
2022-11-20T07:58:22.606Z,6.40
2022-11-20T08:00:50.046Z,6.40
2022-11-20T08:03:24.120Z,6.49
2022-11-20T08:05:53.076Z,6.38
2022-11-20T08:08:20.390Z,6.23
2022-11-20T08:10:48.005Z,6.20
2022-11-20T08:13:33.481Z,6.23
2022-11-20T08:16:00.562Z,6.31
2022-11-20T08:18:32.443Z,6.10
2022-11-20T08:21:05.968Z,6.16
2022-11-20T08:23:33.453Z,6.17
2022-11-20T08:26:00.813Z,6.17
2022-11-20T08:28:28.026Z,6.20
2022-11-20T08:31:02.872Z,6.19
2022-11-20T08:33:31.089Z,6.21
2022-11-20T08:36:02.710Z,6.14
2022-11-20T08:38:30.806Z,6.04
2022-11-20T08:41:21.666Z,6.03
2022-11-20T08:43:49.660Z,6.01
2022-11-20T08:46:16.828Z,5.88
2022-11-20T08:48:44.942Z,5.85
2022-11-20T08:51:13.168Z,5.88
2022-11-20T08:53:40.879Z,5.86
2022-11-20T08:56:08.664Z,5.83
2022-11-20T08:58:55.028Z,5.88
2022-11-20T09:01:24.819Z,5.91
2022-11-20T09:03:57.080Z,6.00
2022-11-20T09:06:24.570Z,5.96
2022-11-20T09:08:55.592Z,6.00
2022-11-20T09:11:23.000Z,5.84
2022-11-20T09:13:50.752Z,5.90
2022-11-20T09:16:17.977Z,5.89
2022-11-20T09:18:45.637Z,5.88
2022-11-20T09:21:15.293Z,5.87
2022-11-20T09:23:42.969Z,5.90
2022-11-20T09:26:14.889Z,5.78
2022-11-20T09:28:43.528Z,5.84
2022-11-20T09:31:21.387Z,5.99
2022-11-20T09:33:48.746Z,5.93
2022-11-20T09:36:17.152Z,5.89
2022-11-20T09:38:44.232Z,5.89
2022-11-20T09:41:36.612Z,5.95
2022-11-20T09:44:20.166Z,5.91
2022-11-20T09:46:59.530Z,6.05
2022-11-20T09:49:45.404Z,6.06
2022-11-20T09:52:35.972Z,6.05
2022-11-20T09:55:05.016Z,6.08
2022-11-20T09:57:42.621Z,6.18
2022-11-20T10:00:15.300Z,6.34
2022-11-20T10:02:46.167Z,6.46
2022-11-20T10:05:20.816Z,6.78
2022-11-20T10:08:10.389Z,7.03
2022-11-20T10:10:49.499Z,7.08
2022-11-20T10:14:02.166Z,7.19
2022-11-20T10:16:48.143Z,7.33
2022-11-20T10:19:28.912Z,7.55
2022-11-20T10:22:14.716Z,7.65
2022-11-20T10:24:51.953Z,7.86
2022-11-20T10:27:19.252Z,8.11
2022-11-20T10:29:55.062Z,8.22
2022-11-20T10:32:31.428Z,8.15
2022-11-20T10:35:05.319Z,8.25
2022-11-20T10:37:38.944Z,8.38
2022-11-20T10:40:21.235Z,8.55
2022-11-20T10:42:57.395Z,8.46
2022-11-20T10:45:30.580Z,8.60
2022-11-20T10:48:16.861Z,8.75
2022-11-20T10:50:56.290Z,8.73
2022-11-20T10:53:42.043Z,8.70
2022-11-20T10:56:24.540Z,8.99
2022-11-20T10:59:32.015Z,8.96
2022-11-20T11:02:02.643Z,8.94
2022-11-20T11:04:45.858Z,9.07
2022-11-20T11:07:39.405Z,9.12
2022-11-20T11:10:42.500Z,9.31
2022-11-20T11:13:21.670Z,9.34
2022-11-20T11:15:48.962Z,9.21
2022-11-20T11:18:34.687Z,9.39
2022-11-20T11:21:05.363Z,9.31
2022-11-20T11:23:34.436Z,9.28
2022-11-20T11:26:04.375Z,9.17
2022-11-20T11:28:32.010Z,9.02
2022-11-20T11:30:59.199Z,9.25
2022-11-20T11:33:32.242Z,9.20
2022-11-20T11:36:21.793Z,9.26
2022-11-20T11:38:53.506Z,9.13
2022-11-20T11:41:25.289Z,9.15
2022-11-20T11:44:17.064Z,9.30
2022-11-20T11:46:58.232Z,9.24
2022-11-20T11:49:25.958Z,9.28
2022-11-20T11:51:53.216Z,9.27
2022-11-20T11:54:31.804Z,9.33
2022-11-20T11:57:04.844Z,9.28
2022-11-20T12:00:09.479Z,9.38
2022-11-20T12:02:45.930Z,9.27
2022-11-20T12:05:21.650Z,9.07
2022-11-20T12:08:24.938Z,9.17
2022-11-20T12:10:55.263Z,9.25
2022-11-20T12:13:31.422Z,9.41
2022-11-20T12:15:59.816Z,9.36
2022-11-20T12:18:28.222Z,9.45
2022-11-20T12:21:20.762Z,9.52
2022-11-20T12:24:03.941Z,9.52
2022-11-20T12:27:02.538Z,9.55
2022-11-20T12:29:38.172Z,9.58
2022-11-20T12:32:31.256Z,9.49
2022-11-20T12:35:37.579Z,9.57
2022-11-20T12:38:32.595Z,9.63
2022-11-20T12:41:06.360Z,9.54
2022-11-20T12:44:04.218Z,9.46
2022-11-20T12:46:53.251Z,9.51
2022-11-20T12:49:40.342Z,9.60
2022-11-20T12:52:16.820Z,9.51
2022-11-20T12:54:51.532Z,9.52
2022-11-20T12:58:07.292Z,9.59
2022-11-20T13:00:36.391Z,9.62
2022-11-20T13:03:20.356Z,9.65
2022-11-20T13:06:09.034Z,9.89
2022-11-20T13:08:40.123Z,9.83
2022-11-20T13:11:14.497Z,9.81
2022-11-20T13:14:05.011Z,9.88
2022-11-20T13:16:48.459Z,9.71
2022-11-20T13:19:20.974Z,9.42
2022-11-20T13:21:52.266Z,9.26
2022-11-20T13:24:31.537Z,9.27
2022-11-20T13:27:07.255Z,9.19
2022-11-20T13:29:41.388Z,9.27
2022-11-20T13:32:16.178Z,9.29
2022-11-20T13:34:53.980Z,9.18
2022-11-20T13:37:36.103Z,9.26
2022-11-20T13:40:07.449Z,9.30
2022-11-20T13:42:40.970Z,9.53
2022-11-20T13:45:30.087Z,9.63
2022-11-20T13:47:59.551Z,9.47
2022-11-20T13:50:37.336Z,9.42
2022-11-20T13:53:33.786Z,9.28
2022-11-20T13:56:45.054Z,9.47
2022-11-20T13:59:38.303Z,9.40
2022-11-20T14:02:15.692Z,9.60
2022-11-20T14:04:56.070Z,9.66
2022-11-20T14:07:28.552Z,9.84
2022-11-20T14:09:57.942Z,9.72
2022-11-20T14:12:30.854Z,9.60
2022-11-20T14:14:58.929Z,9.38
2022-11-20T14:17:32.255Z,9.41
2022-11-20T14:20:03.998Z,9.39
2022-11-20T14:22:31.483Z,9.51
2022-11-20T14:25:16.668Z,9.63
2022-11-20T14:27:53.997Z,9.79
2022-11-20T14:30:24.561Z,9.92
2022-11-20T14:32:55.577Z,10.00
2022-11-20T14:35:31.489Z,10.04
2022-11-20T14:37:59.098Z,10.13
2022-11-20T14:40:33.332Z,10.19
2022-11-20T14:43:00.895Z,10.26
2022-11-20T14:45:29.187Z,10.29
2022-11-20T14:47:59.130Z,10.37
2022-11-20T14:50:30.638Z,10.40
2022-11-20T14:53:01.090Z,10.37
2022-11-20T14:55:39.188Z,10.34
2022-11-20T14:58:21.501Z,10.34
2022-11-20T15:01:00.640Z,10.46
2022-11-20T15:03:38.084Z,10.51
2022-11-20T15:06:08.266Z,10.55
2022-11-20T15:08:36.338Z,10.59
2022-11-20T15:11:05.082Z,10.65
2022-11-20T15:13:40.242Z,10.69
2022-11-20T15:16:20.293Z,10.65
2022-11-20T15:18:48.527Z,10.61
2022-11-20T15:21:17.870Z,10.65
2022-11-20T15:23:47.051Z,10.52
2022-11-20T15:26:20.282Z,10.55
2022-11-20T15:28:49.157Z,10.54
2022-11-20T15:31:19.804Z,10.50
2022-11-20T15:33:47.502Z,10.46
2022-11-20T15:36:15.338Z,10.45
2022-11-20T15:38:42.872Z,10.48
2022-11-20T15:41:11.452Z,10.46
2022-11-20T15:43:40.595Z,10.38
2022-11-20T15:46:12.490Z,10.47
2022-11-20T15:48:55.293Z,10.72
2022-11-20T15:51:37.519Z,10.71
2022-11-20T15:54:13.679Z,10.68
2022-11-20T15:56:40.932Z,10.58
2022-11-20T15:59:08.419Z,10.50
2022-11-20T16:01:38.856Z,10.52
2022-11-20T16:04:10.910Z,10.80
2022-11-20T16:06:44.089Z,10.81
2022-11-20T16:09:12.929Z,10.75
2022-11-20T16:11:40.537Z,10.90
2022-11-20T16:14:35.878Z,10.73
2022-11-20T16:17:04.326Z,10.80
2022-11-20T16:19:31.618Z,10.80
2022-11-20T16:22:03.014Z,10.82
2022-11-20T16:24:31.199Z,10.87
2022-11-20T16:26:59.597Z,10.95
2022-11-20T16:29:26.851Z,11.00
2022-11-20T16:31:53.991Z,11.03
2022-11-20T16:34:21.336Z,11.10
2022-11-20T16:36:49.616Z,11.11
2022-11-20T16:39:22.092Z,11.05
2022-11-20T16:41:51.688Z,11.21
2022-11-20T16:44:18.962Z,11.30
2022-11-20T16:46:46.204Z,11.29
2022-11-20T16:49:14.715Z,11.33
2022-11-20T16:51:42.944Z,11.46
2022-11-20T16:54:11.281Z,11.54
2022-11-20T16:56:40.576Z,11.50
2022-11-20T16:59:07.759Z,11.61
2022-11-20T17:01:38.715Z,11.55
2022-11-20T17:04:07.367Z,11.59
2022-11-20T17:06:39.181Z,11.62
2022-11-20T17:09:11.024Z,11.62
2022-11-20T17:11:41.474Z,11.73
2022-11-20T17:14:08.951Z,11.74
2022-11-20T17:16:37.528Z,11.79
2022-11-20T17:19:09.416Z,11.81
2022-11-20T17:21:37.347Z,11.72
2022-11-20T17:24:07.207Z,11.61
2022-11-20T17:26:35.336Z,11.71
2022-11-20T17:29:05.570Z,11.75
2022-11-20T17:31:34.955Z,11.87
2022-11-20T17:34:03.348Z,11.89
2022-11-20T17:36:32.090Z,11.95
2022-11-20T17:39:00.726Z,12.04
2022-11-20T17:41:29.714Z,11.97
2022-11-20T17:43:59.194Z,11.87
2022-11-20T17:46:33.712Z,11.98
2022-11-20T17:49:02.032Z,11.70
2022-11-20T17:51:31.627Z,11.84
2022-11-20T17:54:04.404Z,11.83
2022-11-20T17:56:53.976Z,11.97
2022-11-20T17:59:21.631Z,11.83
2022-11-20T18:01:48.932Z,11.85
2022-11-20T18:04:17.837Z,11.93
2022-11-20T18:06:45.835Z,11.92
2022-11-20T18:09:13.323Z,11.90
2022-11-20T18:11:42.892Z,11.82
2022-11-20T18:14:50.008Z,11.88
2022-11-20T18:17:18.292Z,11.82
2022-11-20T18:20:13.762Z,12.09
2022-11-20T18:22:35.709Z,12.11
2022-11-20T18:25:06.858Z,12.00
2022-11-20T18:27:34.209Z,11.96
2022-11-20T18:30:01.348Z,11.78
2022-11-20T18:32:30.774Z,11.84
2022-11-20T18:34:58.165Z,11.88
2022-11-20T18:37:25.421Z,11.88
2022-11-20T18:39:52.956Z,11.84
2022-11-20T18:42:38.601Z,11.84
2022-11-20T18:45:06.626Z,11.84
2022-11-20T18:47:40.397Z,11.84
2022-11-20T18:50:09.240Z,11.78
2022-11-20T18:52:44.717Z,11.71
2022-11-20T18:58:06.355Z,11.72
2022-11-20T19:00:34.937Z,11.72
2022-11-20T19:03:05.573Z,11.73
2022-11-20T19:05:36.607Z,11.77
2022-11-20T19:08:03.858Z,11.71
2022-11-20T19:10:31.504Z,11.79
2022-11-20T19:12:59.584Z,11.67
2022-11-20T19:15:28.638Z,11.68
2022-11-20T19:17:57.808Z,11.66
2022-11-20T19:20:26.239Z,11.76
2022-11-20T19:22:55.897Z,11.78
2022-11-20T19:25:23.169Z,11.59
2022-11-20T19:27:50.567Z,11.53
2022-11-20T19:30:18.689Z,11.57
2022-11-20T19:32:47.153Z,11.49
2022-11-20T19:35:14.378Z,11.53
2022-11-20T19:37:42.444Z,11.42
2022-11-20T19:40:10.025Z,11.59
2022-11-20T19:42:37.997Z,11.66
2022-11-20T19:45:05.593Z,11.55
2022-11-20T19:48:01.080Z,11.73
2022-11-20T19:50:21.014Z,11.82
2022-11-20T19:52:48.284Z,11.75
2022-11-20T19:55:15.562Z,11.68
2022-11-20T19:57:44.413Z,11.64
2022-11-20T20:00:15.945Z,11.63
2022-11-20T20:02:47.262Z,11.59
2022-11-20T20:05:14.350Z,11.55
2022-11-20T20:07:42.287Z,11.52
2022-11-20T20:10:10.435Z,11.51
2022-11-20T20:12:39.930Z,11.48
2022-11-20T20:15:07.893Z,11.43
2022-11-20T20:17:35.409Z,11.38
2022-11-20T20:20:02.967Z,11.42
2022-11-20T20:22:31.858Z,11.47
2022-11-20T20:24:59.150Z,11.39
2022-11-20T20:27:27.051Z,11.46
2022-11-20T20:29:54.455Z,11.41
2022-11-20T20:32:21.688Z,11.43
2022-11-20T20:34:49.523Z,11.39
2022-11-20T20:37:16.786Z,11.29
2022-11-20T20:39:43.822Z,11.33
2022-11-20T20:42:11.160Z,11.04
2022-11-20T20:44:56.666Z,11.36
2022-11-20T20:47:23.931Z,11.32
2022-11-20T20:49:51.113Z,11.37
2022-11-20T20:52:18.361Z,11.30
2022-11-20T20:54:46.620Z,11.25
2022-11-20T20:57:13.832Z,11.23
2022-11-20T20:59:41.076Z,11.15
2022-11-20T21:02:10.519Z,11.28
2022-11-20T21:04:37.865Z,11.32
2022-11-20T21:07:05.094Z,11.20
2022-11-20T21:09:32.595Z,11.16
2022-11-20T21:11:59.718Z,11.20
2022-11-20T21:14:26.777Z,11.24
2022-11-20T21:16:54.241Z,11.25
2022-11-20T21:19:21.802Z,11.18
2022-11-20T21:22:01.850Z,11.18
2022-11-20T21:24:34.830Z,11.18
2022-11-20T21:27:05.854Z,11.10
2022-11-20T21:29:33.218Z,11.04
2022-11-20T21:32:00.272Z,11.12
2022-11-20T21:34:27.648Z,11.14
2022-11-20T21:36:54.965Z,11.17
2022-11-20T21:39:23.383Z,11.14
2022-11-20T21:41:50.437Z,11.17
2022-11-20T21:44:30.917Z,11.21
2022-11-20T21:47:00.269Z,11.22
2022-11-20T21:49:28.209Z,11.20
2022-11-20T21:51:55.541Z,11.18
2022-11-20T21:54:22.979Z,11.16
2022-11-20T21:56:50.590Z,11.16
2022-11-20T21:59:17.755Z,11.20
2022-11-20T22:01:45.330Z,11.18
2022-11-20T22:04:14.656Z,11.32
2022-11-20T22:06:41.894Z,11.30
2022-11-20T22:09:10.861Z,11.40
2022-11-20T22:11:38.902Z,11.32
2022-11-20T22:14:21.184Z,11.27
2022-11-20T22:16:50.673Z,11.21
2022-11-20T22:19:20.222Z,11.23
2022-11-20T22:21:47.817Z,11.23
2022-11-20T22:24:17.758Z,11.20
2022-11-20T22:26:45.613Z,11.12
2022-11-20T22:29:21.367Z,11.18
2022-11-20T22:31:51.237Z,11.17
2022-11-20T22:34:18.522Z,11.19
2022-11-20T22:36:45.862Z,11.18
2022-11-20T22:39:13.121Z,11.31
2022-11-20T22:41:40.981Z,11.43
2022-11-20T22:44:08.600Z,11.37
2022-11-20T22:46:37.630Z,11.39
2022-11-20T22:49:07.643Z,11.33
2022-11-20T22:51:37.562Z,11.30
2022-11-20T22:54:05.109Z,11.33
2022-11-20T22:56:33.192Z,11.36
2022-11-20T22:59:00.539Z,11.28
2022-11-20T23:01:34.443Z,11.27
2022-11-20T23:04:05.008Z,11.27
2022-11-20T23:06:35.684Z,11.40
2022-11-20T23:09:04.777Z,11.40
2022-11-20T23:11:32.874Z,11.36
2022-11-20T23:14:06.534Z,11.42
2022-11-20T23:16:35.082Z,11.44
2022-11-20T23:19:06.028Z,11.50
2022-11-20T23:21:34.195Z,11.49
2022-11-20T23:24:01.433Z,11.48
2022-11-20T23:26:32.646Z,11.68
2022-11-20T23:29:01.134Z,11.61
2022-11-20T23:31:30.373Z,11.57
2022-11-20T23:33:58.743Z,11.50
2022-11-20T23:36:26.883Z,11.51
2022-11-20T23:38:54.302Z,11.48
2022-11-20T23:41:21.690Z,11.46
2022-11-20T23:43:49.411Z,11.43
2022-11-20T23:46:17.144Z,11.31
2022-11-20T23:48:45.678Z,11.45
2022-11-20T23:51:14.184Z,11.43
2022-11-20T23:53:41.757Z,11.39
2022-11-20T23:56:09.147Z,11.39
2022-11-20T23:58:38.016Z,11.43
